createdAt,value
2018-07-02T00:01:18.706Z,19.38
2018-07-02T00:03:50.770Z,19.36
2018-07-02T00:06:40.579Z,19.32
2018-07-02T00:09:11.210Z,19.27
2018-07-02T00:11:42.751Z,19.20
2018-07-02T00:14:13.041Z,19.16
2018-07-02T00:16:47.687Z,19.17
2018-07-02T00:19:19.660Z,19.13
2018-07-02T00:21:51.523Z,19.10
2018-07-02T00:24:23.370Z,19.08
2018-07-02T00:26:54.600Z,19.08
2018-07-02T00:29:26.469Z,19.05
2018-07-02T00:31:59.468Z,19.04
2018-07-02T00:34:28.372Z,19.02
2018-07-02T00:36:57.178Z,18.97
2018-07-02T00:39:25.944Z,18.94
2018-07-02T00:41:57.615Z,18.90
2018-07-02T00:44:32.899Z,18.86
2018-07-02T00:47:04.630Z,18.84
2018-07-02T00:49:34.614Z,18.83
2018-07-02T00:52:03.417Z,18.82
2018-07-02T00:54:32.227Z,18.81
2018-07-02T00:57:01.011Z,18.81
2018-07-02T00:59:29.950Z,18.78
2018-07-02T01:02:00.709Z,18.78
2018-07-02T01:04:30.570Z,18.78
2018-07-02T01:07:01.740Z,18.77
2018-07-02T01:09:30.558Z,18.77
2018-07-02T01:11:59.394Z,18.77
2018-07-02T01:14:28.163Z,18.77
2018-07-02T01:16:57.142Z,18.75
2018-07-02T01:19:26.968Z,18.72
2018-07-02T01:21:56.832Z,18.70
2018-07-02T01:24:26.619Z,18.67
2018-07-02T01:26:55.450Z,18.66
2018-07-02T01:29:24.293Z,18.63
2018-07-02T01:31:53.234Z,18.62
2018-07-02T01:34:22.210Z,18.62
2018-07-02T01:36:51.764Z,18.62
2018-07-02T01:39:21.407Z,18.62
2018-07-02T01:41:51.064Z,18.61
2018-07-02T01:44:19.834Z,18.60
2018-07-02T01:46:48.683Z,18.59
2018-07-02T01:49:17.445Z,18.59
2018-07-02T01:51:46.356Z,18.58
2018-07-02T01:54:15.756Z,18.56
2018-07-02T01:56:46.614Z,18.55
2018-07-02T01:59:17.347Z,18.53
2018-07-02T02:01:46.285Z,18.51
2018-07-02T02:04:15.075Z,18.49
2018-07-02T02:06:43.899Z,18.48
2018-07-02T02:09:13.080Z,18.47
2018-07-02T02:11:42.683Z,18.47
2018-07-02T02:14:12.826Z,18.45
2018-07-02T02:16:42.682Z,18.41
2018-07-02T02:19:11.478Z,18.40
2018-07-02T02:21:40.285Z,18.39
2018-07-02T02:24:09.035Z,18.39
2018-07-02T02:26:38.094Z,18.39
2018-07-02T02:29:07.776Z,18.39
2018-07-02T02:31:39.368Z,18.36
2018-07-02T02:34:11.154Z,18.35
2018-07-02T02:36:40.058Z,18.34
2018-07-02T02:39:09.871Z,18.33
2018-07-02T02:41:38.662Z,18.31
2018-07-02T02:44:07.996Z,18.30
2018-07-02T02:46:39.051Z,18.27
2018-07-02T02:49:08.747Z,18.26
2018-07-02T02:51:38.198Z,18.22
2018-07-02T02:54:07.090Z,18.22
2018-07-02T02:56:35.849Z,18.19
2018-07-02T02:59:04.616Z,18.16
2018-07-02T03:01:33.527Z,18.13
2018-07-02T03:04:03.220Z,18.12
2018-07-02T03:06:32.575Z,18.10
2018-07-02T03:09:02.748Z,18.08
2018-07-02T03:11:31.482Z,18.08
2018-07-02T03:14:00.237Z,18.05
2018-07-02T03:16:29.051Z,18.03
2018-07-02T03:18:57.941Z,18.00
2018-07-02T03:21:27.919Z,18.00
2018-07-02T03:23:59.660Z,17.98
2018-07-02T03:26:32.690Z,17.95
2018-07-02T03:29:04.730Z,17.96
2018-07-02T03:31:33.704Z,17.94
2018-07-02T03:34:02.557Z,17.94
2018-07-02T03:36:31.369Z,17.93
2018-07-02T03:39:00.466Z,17.92
2018-07-02T03:41:31.341Z,17.91
2018-07-02T03:44:01.178Z,17.90
2018-07-02T03:46:30.763Z,17.89
2018-07-02T03:48:59.541Z,17.88
2018-07-02T03:51:28.379Z,17.87
2018-07-02T03:53:57.238Z,17.86
2018-07-02T03:56:26.531Z,17.84
2018-07-02T03:58:55.789Z,17.84
2018-07-02T04:01:25.280Z,17.84
2018-07-02T04:03:54.676Z,17.82
2018-07-02T04:06:26.573Z,17.83
2018-07-02T04:08:55.395Z,17.81
2018-07-02T04:11:24.183Z,17.78
2018-07-02T04:13:53.603Z,17.79
2018-07-02T04:16:23.244Z,17.80
2018-07-02T04:18:56.903Z,17.81
2018-07-02T04:21:26.826Z,17.81
2018-07-02T04:23:55.689Z,17.83
2018-07-02T04:26:24.606Z,17.87
2018-07-02T04:28:53.838Z,17.87
2018-07-02T04:31:23.129Z,17.87
2018-07-02T04:33:53.005Z,17.89
2018-07-02T04:36:22.683Z,17.91
2018-07-02T04:38:55.016Z,17.93
2018-07-02T04:41:23.779Z,17.94
2018-07-02T04:43:52.677Z,17.95
2018-07-02T04:46:21.517Z,17.98
2018-07-02T04:48:50.940Z,18.00
2018-07-02T04:51:20.758Z,18.01
2018-07-02T04:53:53.076Z,18.02
2018-07-02T04:56:24.522Z,18.05
2018-07-02T04:58:53.348Z,18.06
2018-07-02T05:01:22.134Z,18.08
2018-07-02T05:03:50.949Z,18.11
2018-07-02T05:06:20.767Z,18.14
2018-07-02T05:08:51.325Z,18.16
2018-07-02T05:11:20.690Z,18.19
2018-07-02T05:13:50.791Z,18.21
2018-07-02T05:16:19.582Z,18.24
2018-07-02T05:18:48.348Z,18.26
2018-07-02T05:21:17.307Z,18.28
2018-07-02T05:23:46.781Z,18.28
2018-07-02T05:26:16.622Z,18.27
2018-07-02T05:28:45.659Z,18.29
2018-07-02T05:31:14.839Z,18.30
2018-07-02T05:33:43.636Z,18.31
2018-07-02T05:36:12.326Z,18.34
2018-07-02T05:38:41.150Z,18.36
2018-07-02T05:41:10.517Z,18.38
2018-07-02T05:43:40.427Z,18.41
2018-07-02T05:46:09.636Z,18.46
2018-07-02T05:48:45.233Z,18.50
2018-07-02T05:51:14.062Z,18.54
2018-07-02T05:53:42.799Z,18.56
2018-07-02T05:56:11.794Z,18.59
2018-07-02T05:58:42.442Z,18.63
2018-07-02T06:01:12.172Z,18.66
2018-07-02T06:03:48.180Z,18.69
2018-07-02T06:06:17.446Z,18.74
2018-07-02T06:08:46.275Z,18.78
2018-07-02T06:11:15.078Z,18.82
2018-07-02T06:13:44.050Z,18.85
2018-07-02T06:16:13.630Z,18.88
2018-07-02T06:18:42.727Z,18.92
2018-07-02T06:21:12.464Z,18.96
2018-07-02T06:23:41.440Z,19.01
2018-07-02T06:26:10.187Z,19.07
2018-07-02T06:28:38.942Z,19.14
2018-07-02T06:31:07.878Z,19.19
2018-07-02T06:42:11.741Z,19.25
2018-07-02T06:44:44.360Z,19.55
2018-07-02T06:47:13.098Z,19.63
2018-07-02T06:50:14.405Z,19.69
2018-07-02T06:52:44.121Z,19.77
2018-07-02T06:55:13.793Z,19.83
2018-07-02T06:57:43.403Z,19.90
2018-07-02T07:00:12.742Z,19.96
2018-07-02T07:02:41.840Z,20.03
2018-07-02T07:05:10.970Z,20.09
2018-07-02T07:19:10.074Z,20.43
2018-07-02T07:21:39.396Z,20.50
2018-07-02T07:24:08.008Z,20.54
2018-07-02T07:37:02.554Z,20.61
2018-07-02T07:39:31.399Z,20.86
2018-07-02T07:42:00.262Z,20.92
2018-07-02T07:44:29.230Z,20.99
2018-07-02T07:58:50.166Z,21.27
2018-07-02T08:01:19.173Z,21.35
2018-07-02T08:13:05.697Z,21.63
2018-07-02T08:15:34.411Z,21.69
2018-07-02T08:18:03.215Z,21.76
2018-07-02T08:20:32.145Z,21.82
2018-07-02T08:32:10.434Z,22.27
2018-07-02T08:34:39.414Z,22.38
2018-07-02T08:37:08.377Z,22.47
2018-07-02T08:51:47.707Z,22.97
2018-07-02T08:54:16.877Z,23.04
2018-07-02T08:56:46.241Z,23.11
2018-07-02T09:11:19.563Z,23.53
2018-07-02T09:13:48.521Z,23.63
2018-07-02T09:16:18.306Z,23.73
2018-07-02T09:40:08.185Z,24.51
2018-07-02T09:42:37.895Z,24.59
2018-07-02T09:45:08.511Z,24.68
2018-07-02T09:57:06.235Z,25.04
2018-07-02T09:59:35.215Z,25.11
2018-07-02T10:02:04.192Z,25.15
2018-07-02T10:04:33.534Z,25.21
2018-07-02T10:16:11.250Z,25.61
2018-07-02T10:18:40.170Z,25.71
2018-07-02T10:21:09.267Z,25.78
2018-07-02T10:23:40.332Z,25.87
2018-07-02T10:35:19.123Z,26.24
2018-07-02T10:37:49.095Z,26.24
2018-07-02T10:40:18.084Z,26.32
2018-07-02T10:54:57.214Z,27.01
2018-07-02T10:57:26.307Z,27.13
2018-07-02T10:59:55.311Z,27.26
2018-07-02T11:17:09.419Z,27.86
2018-07-02T11:19:38.265Z,27.90
2018-07-02T11:22:07.861Z,27.99
2018-07-02T11:27:47.826Z,28.18
2018-07-02T11:30:27.422Z,28.30
2018-07-02T11:38:37.507Z,28.71
2018-07-02T11:41:06.530Z,28.85
2018-07-02T11:43:35.961Z,28.96
2018-07-02T11:58:17.571Z,29.64
2018-07-02T12:00:46.494Z,29.78
2018-07-02T12:03:15.638Z,29.83
2018-07-02T12:14:52.558Z,30.29
2018-07-02T12:17:21.699Z,30.39
2018-07-02T12:19:50.687Z,30.48
2018-07-02T12:22:21.114Z,30.57
2018-07-02T12:37:01.486Z,30.96
2018-07-02T12:39:30.611Z,31.04
2018-07-02T12:41:59.794Z,31.14
2018-07-02T12:59:41.542Z,31.63
2018-07-02T13:02:10.675Z,31.69
2018-07-02T13:04:40.023Z,31.74
2018-07-02T13:22:30.563Z,32.09
2018-07-02T13:24:59.544Z,32.15
2018-07-02T13:27:29.968Z,32.18
2018-07-02T13:51:19.083Z,32.72
2018-07-02T13:53:49.173Z,32.82
2018-07-02T13:56:18.166Z,32.89
2018-07-02T14:10:58.007Z,33.33
2018-07-02T14:13:27.064Z,33.35
2018-07-02T14:15:55.998Z,33.30
2018-07-02T14:30:36.516Z,33.73
2018-07-02T14:33:05.619Z,33.85
2018-07-02T14:35:34.751Z,33.90
2018-07-02T14:53:17.837Z,34.39
2018-07-02T14:55:47.006Z,34.42
2018-07-02T14:58:16.862Z,34.48
2018-07-02T15:19:03.592Z,35.13
2018-07-02T15:21:32.684Z,35.21
2018-07-02T15:24:01.760Z,35.32
2018-07-02T15:50:52.832Z,35.73
2018-07-02T15:53:24.081Z,35.89
2018-07-02T15:55:58.383Z,36.08
2018-07-02T16:37:56.730Z,36.93
2018-07-02T16:40:25.614Z,37.11
2018-07-02T16:42:54.507Z,37.24
2018-07-02T16:45:23.935Z,37.29
2018-07-02T17:16:40.163Z,38.58
2018-07-02T17:19:15.973Z,38.62
2018-07-02T17:21:44.943Z,38.49
2018-07-02T17:24:13.815Z,38.23
2018-07-02T17:26:43.022Z,38.08
2018-07-02T18:02:44.629Z,38.83
2018-07-02T18:05:13.640Z,38.92
2018-07-02T18:07:42.598Z,39.02
2018-07-02T18:10:11.916Z,39.12
2018-07-02T19:23:33.007Z,35.47
2018-07-02T19:26:25.099Z,35.02
2018-07-02T20:37:35.897Z,28.04
2018-07-02T20:58:39.360Z,27.13
2018-07-02T21:01:08.230Z,27.06
2018-07-02T21:03:37.168Z,26.99
2018-07-02T21:06:16.055Z,26.91
2018-07-02T21:12:04.419Z,26.68
2018-07-02T21:14:55.229Z,26.59
2018-07-02T22:32:57.645Z,25.04
2018-07-02T22:35:26.534Z,25.01
2018-07-02T22:37:55.642Z,24.98
2018-07-02T23:25:24.283Z,24.03
2018-07-02T23:30:44.273Z,23.93
2018-07-02T23:33:27.254Z,23.89
2018-07-02T23:38:52.578Z,23.82
2018-07-02T23:41:31.454Z,23.79
